Hot Springs, Arkansas
Current Conditions -  °F | °C
As of 3:53 AM on Saturday 25 Oct 2014 (Local Time) from KHOT Reporting Station
Haze Haze  
Wind Chill: 57°   Ceiling: Unl
Heat Index: 57°   Visibility: 5mi
Dew Point: 56°   Wind: 5mph
Humidity: 96%   Direction: 300°WNW
Pressure: 30.1"   Gusts: NA
Location:  34.51°N, 93.05°W
Report Text: KHOT 250853Z AUTO 30004KT 5SM BR CLR 14/13 A3010 RMK AO2 SLP190 T01390133 58007
Loading
Personal Weather Stations






























Interactive Weather Map New forecast layout! Learn more

10-Day Weather Forecast

Advertisements
Track Severe Weather on mobile